createdAt,value
2023-04-29T00:03:48.672Z,9360.00
2023-04-29T00:08:55.818Z,9324.00
2023-04-29T00:14:03.239Z,9252.00
2023-04-29T00:19:10.476Z,9252.00
2023-04-29T00:24:17.751Z,9360.00
2023-04-29T00:29:25.239Z,9432.00
2023-04-29T00:34:32.285Z,9216.00
2023-04-29T00:39:39.583Z,9468.00
2023-04-29T00:44:52.858Z,9612.00
2023-04-29T00:50:00.076Z,9468.00
2023-04-29T00:55:07.410Z,9396.00
2023-04-29T01:00:14.730Z,9504.00
2023-04-29T01:05:21.986Z,9396.00
2023-04-29T01:10:36.061Z,-288.00
2023-04-29T01:16:24.887Z,-216.00
2023-04-29T01:27:35.171Z,-288.00
2023-04-29T01:33:09.467Z,-216.00
2023-04-29T01:39:18.032Z,-252.00
2023-04-29T01:43:56.559Z,-288.00
2023-04-29T01:49:16.788Z,-252.00
2023-04-29T01:54:41.276Z,-216.00
2023-04-29T01:59:47.038Z,-252.00
2023-04-29T02:05:58.484Z,-252.00
2023-04-29T02:10:26.131Z,-252.00
2023-04-29T02:16:17.833Z,-252.00
2023-04-29T02:22:51.625Z,-252.00
2023-04-29T02:26:15.458Z,-252.00
2023-04-29T02:32:02.688Z,-216.00
2023-04-29T02:38:07.046Z,-252.00
2023-04-29T02:43:24.608Z,-252.00
2023-04-29T02:48:46.535Z,-288.00
2023-04-29T02:54:34.890Z,-252.00
2023-04-29T02:59:54.452Z,-216.00
2023-04-29T03:05:37.168Z,-252.00
2023-04-29T03:11:25.435Z,-288.00
2023-04-29T03:16:58.618Z,-252.00
2023-04-29T03:22:18.723Z,-216.00
2023-04-29T03:27:56.408Z,-288.00
2023-04-29T03:33:29.527Z,-216.00
2023-04-29T03:39:13.023Z,-216.00
2023-04-29T03:45:01.345Z,-252.00
2023-04-29T03:50:43.805Z,-216.00
2023-04-29T03:55:57.092Z,-252.00
2023-04-29T04:01:09.481Z,-252.00
2023-04-29T04:11:47.950Z,-288.00
2023-04-29T04:16:52.394Z,-252.00
2023-04-29T04:22:05.272Z,-216.00
2023-04-29T04:27:31.062Z,-252.00
2023-04-29T04:32:40.301Z,-252.00
2023-04-29T04:37:52.587Z,-216.00
2023-04-29T04:43:39.926Z,-216.00
2023-04-29T04:48:54.749Z,-216.00
2023-04-29T04:54:17.796Z,-180.00
2023-04-29T04:59:38.738Z,-216.00
2023-04-29T05:05:11.916Z,-180.00
2023-04-29T05:11:22.938Z,-144.00
2023-04-29T05:16:31.748Z,-180.00
2023-04-29T05:21:44.331Z,-144.00
2023-04-29T05:27:02.629Z,-72.00
2023-04-29T05:32:16.003Z,0.00
2023-04-29T05:37:38.795Z,-72.00
2023-04-29T05:43:01.430Z,0.00
2023-04-29T05:48:32.930Z,0.00
2023-04-29T05:54:03.352Z,36.00
2023-04-29T05:59:14.737Z,72.00
2023-04-29T06:04:27.173Z,36.00
2023-04-29T06:09:39.723Z,0.00
2023-04-29T06:14:49.943Z,108.00
2023-04-29T06:20:05.045Z,108.00
2023-04-29T06:25:14.638Z,72.00
2023-04-29T06:30:30.148Z,36.00
2023-04-29T06:35:53.099Z,108.00
2023-04-29T06:41:31.916Z,144.00
2023-04-29T06:46:37.830Z,108.00
2023-04-29T06:52:28.249Z,216.00
2023-04-29T07:09:18.512Z,0.00
2023-04-29T07:14:18.501Z,36.00
2023-04-29T07:14:35.321Z,216.00
2023-04-29T07:19:19.495Z,396.00
2023-04-29T07:19:39.226Z,108.00
2023-04-29T07:24:47.156Z,72.00
2023-04-29T07:30:09.838Z,108.00
2023-04-29T07:36:49.273Z,36.00
2023-04-29T07:40:35.862Z,72.00
2023-04-29T07:45:59.152Z,72.00
2023-04-29T07:51:59.615Z,72.00
2023-04-29T07:56:25.168Z,36.00
2023-04-29T08:01:35.698Z,36.00
2023-04-29T08:06:43.425Z,36.00
2023-04-29T08:12:38.461Z,36.00
2023-04-29T08:17:09.821Z,36.00
2023-04-29T08:22:17.443Z,36.00
2023-04-29T08:27:30.212Z,36.00
2023-04-29T08:33:14.156Z,72.00
2023-04-29T08:38:30.048Z,72.00
2023-04-29T08:44:28.063Z,72.00
2023-04-29T08:48:55.337Z,72.00
2023-04-29T08:55:42.593Z,36.00
2023-04-29T09:00:28.107Z,108.00
2023-04-29T09:04:53.459Z,108.00
2023-04-29T09:10:19.894Z,72.00
2023-04-29T09:15:25.459Z,72.00
2023-04-29T09:22:22.575Z,72.00
2023-04-29T09:25:46.874Z,108.00
2023-04-29T09:30:59.243Z,144.00
2023-04-29T09:37:56.181Z,180.00
2023-04-29T09:42:50.943Z,252.00
2023-04-29T09:48:05.035Z,180.00
2023-04-29T09:54:02.321Z,216.00
2023-04-29T09:59:16.712Z,468.00
2023-04-29T10:11:59.948Z,468.00
2023-04-29T10:15:11.022Z,216.00
2023-04-29T10:20:18.825Z,324.00
2023-04-29T10:26:01.679Z,252.00
2023-04-29T10:31:10.415Z,144.00
2023-04-29T10:36:18.011Z,216.00
2023-04-29T10:41:25.733Z,180.00
2023-04-29T10:46:42.947Z,288.00
2023-04-29T10:51:50.436Z,288.00
2023-04-29T10:56:57.997Z,252.00
2023-04-29T11:02:05.526Z,288.00
2023-04-29T11:07:27.862Z,25056.00
2023-04-29T11:13:22.285Z,25992.00
2023-04-29T11:17:57.862Z,22896.00
2023-04-29T11:23:54.291Z,24588.00
2023-04-29T11:28:27.466Z,25560.00
2023-04-29T11:33:34.790Z,25812.00
2023-04-29T11:38:41.897Z,27000.00
2023-04-29T11:43:49.072Z,23724.00
2023-04-29T11:48:56.265Z,24912.00
2023-04-29T11:54:04.301Z,25776.00
2023-04-29T11:59:11.133Z,25344.00
2023-04-29T12:04:18.908Z,25632.00
2023-04-29T12:09:25.515Z,26208.00
2023-04-29T12:14:32.775Z,26244.00
2023-04-29T12:19:40.013Z,24660.00
2023-04-29T12:24:47.265Z,23184.00
2023-04-29T12:29:54.454Z,24372.00
2023-04-29T12:35:01.702Z,22356.00
2023-04-29T12:40:09.036Z,20412.00
2023-04-29T12:45:16.243Z,20772.00
2023-04-29T12:50:23.531Z,22068.00
2023-04-29T12:55:30.864Z,22788.00
2023-04-29T13:00:38.190Z,22032.00
2023-04-29T13:05:45.287Z,21384.00
2023-04-29T13:10:52.627Z,20052.00
2023-04-29T13:15:59.848Z,22644.00
2023-04-29T13:21:07.016Z,23436.00
2023-04-29T13:26:14.194Z,24768.00
2023-04-29T13:31:21.484Z,20844.00
2023-04-29T13:36:28.867Z,21420.00
2023-04-29T13:41:36.137Z,24192.00
2023-04-29T13:46:47.619Z,25848.00
2023-04-29T13:52:42.909Z,25992.00
2023-04-29T13:57:30.207Z,26244.00
2023-04-29T14:02:24.360Z,21924.00
2023-04-29T14:07:15.430Z,19080.00
2023-04-29T14:12:22.905Z,18828.00
2023-04-29T14:17:30.220Z,20160.00
2023-04-29T14:22:37.490Z,23040.00
2023-04-29T14:27:44.741Z,24156.00
2023-04-29T14:32:51.947Z,19116.00
2023-04-29T14:37:59.260Z,19224.00
2023-04-29T14:43:06.510Z,17928.00
2023-04-29T14:48:13.851Z,17568.00
2023-04-29T14:53:21.221Z,17820.00
2023-04-29T14:58:31.468Z,20628.00
2023-04-29T15:08:46.039Z,20268.00
2023-04-29T15:13:53.235Z,20376.00
2023-04-29T15:19:00.524Z,22320.00
2023-04-29T15:24:07.825Z,22860.00
2023-04-29T15:29:15.045Z,23220.00
2023-04-29T15:34:22.266Z,18972.00
2023-04-29T15:39:29.569Z,21348.00
2023-04-29T15:44:36.823Z,19404.00
2023-04-29T15:49:44.281Z,21492.00
2023-04-29T15:54:51.636Z,22824.00
2023-04-29T15:59:58.826Z,21528.00
2023-04-29T16:05:06.068Z,21420.00
2023-04-29T16:10:13.384Z,21060.00
2023-04-29T16:15:20.646Z,21492.00
2023-04-29T16:20:27.926Z,18936.00
2023-04-29T16:25:35.274Z,19044.00
2023-04-29T16:30:42.409Z,19332.00
2023-04-29T16:35:49.711Z,20376.00
2023-04-29T16:40:56.984Z,18504.00
2023-04-29T16:46:04.552Z,18540.00
2023-04-29T16:51:11.824Z,19152.00
2023-04-29T16:56:19.060Z,17856.00
2023-04-29T17:01:26.313Z,18252.00
2023-04-29T17:06:33.736Z,16344.00
2023-04-29T17:11:40.891Z,16056.00
2023-04-29T17:16:48.093Z,14940.00
2023-04-29T17:21:55.451Z,13572.00
2023-04-29T17:27:02.947Z,13464.00
2023-04-29T17:32:10.509Z,12096.00
2023-04-29T17:37:17.838Z,8604.00
2023-04-29T17:42:25.232Z,7128.00
2023-04-29T17:47:32.549Z,7776.00
2023-04-29T17:52:39.802Z,6372.00
2023-04-29T17:57:47.124Z,4716.00
2023-04-29T18:02:54.900Z,3348.00
2023-04-29T18:08:02.164Z,4716.00
2023-04-29T18:13:09.729Z,5616.00
2023-04-29T18:18:17.541Z,4320.00
2023-04-29T18:23:25.155Z,3312.00
2023-04-29T18:28:32.613Z,2448.00
2023-04-29T18:33:39.847Z,1980.00
2023-04-29T18:38:48.120Z,1404.00
2023-04-29T18:43:55.346Z,1368.00
2023-04-29T18:49:02.538Z,1332.00
2023-04-29T18:54:09.767Z,1260.00
2023-04-29T18:59:17.331Z,1260.00
2023-04-29T19:04:24.741Z,1224.00
2023-04-29T19:09:31.937Z,1260.00
2023-04-29T19:14:39.456Z,1332.00
2023-04-29T19:19:47.060Z,1368.00
2023-04-29T19:24:54.560Z,1260.00
2023-04-29T19:30:02.156Z,1296.00
2023-04-29T19:35:09.416Z,1296.00
2023-04-29T19:40:16.916Z,2916.00
2023-04-29T19:45:24.631Z,6696.00
2023-04-29T19:50:32.229Z,6444.00
2023-04-29T19:55:39.770Z,5796.00
2023-04-29T20:00:47.336Z,5004.00
2023-04-29T20:05:54.703Z,5040.00
2023-04-29T20:11:01.981Z,4896.00
2023-04-29T20:16:09.436Z,4860.00
2023-04-29T20:21:16.858Z,5076.00
2023-04-29T20:26:24.341Z,5364.00
2023-04-29T20:31:31.566Z,5220.00
2023-04-29T20:36:38.714Z,5184.00
2023-04-29T20:41:45.945Z,4356.00
2023-04-29T20:46:53.465Z,4428.00
2023-04-29T20:52:00.374Z,3492.00
2023-04-29T20:57:07.537Z,2988.00
2023-04-29T21:02:16.967Z,2196.00
2023-04-29T21:07:22.654Z,2808.00
2023-04-29T21:12:29.957Z,2232.00
2023-04-29T21:17:37.221Z,2160.00
2023-04-29T21:22:44.389Z,2412.00
2023-04-29T21:27:51.634Z,2916.00
2023-04-29T21:32:58.938Z,2340.00
2023-04-29T21:38:06.154Z,2304.00
2023-04-29T21:43:14.420Z,2268.00
2023-04-29T21:48:21.652Z,2160.00
2023-04-29T21:53:29.129Z,2700.00
2023-04-29T21:58:36.404Z,2880.00
2023-04-29T22:03:43.601Z,2196.00
2023-04-29T22:08:50.857Z,2736.00
2023-04-29T22:13:58.059Z,2772.00
2023-04-29T22:19:05.299Z,2268.00
2023-04-29T22:24:12.500Z,2160.00
2023-04-29T22:29:19.796Z,2808.00
2023-04-29T22:34:27.131Z,2700.00
2023-04-29T22:39:34.384Z,2448.00
2023-04-29T22:44:41.762Z,2700.00
2023-04-29T22:49:48.965Z,2736.00
2023-04-29T22:54:56.225Z,2808.00
2023-04-29T23:00:03.422Z,2376.00
2023-04-29T23:05:10.798Z,2340.00
2023-04-29T23:10:17.911Z,2808.00
2023-04-29T23:15:25.296Z,2232.00
2023-04-29T23:20:32.593Z,2880.00
2023-04-29T23:25:39.870Z,2664.00
2023-04-29T23:30:47.146Z,2556.00
2023-04-29T23:35:54.486Z,2196.00
2023-04-29T23:41:01.725Z,2592.00
2023-04-29T23:46:09.054Z,2628.00
2023-04-29T23:51:16.446Z,2484.00
2023-04-29T23:56:23.675Z,2268.00
